sensor_id;sensor_type;location;lat;lon;timestamp;temperature;humidity
43151;DHT22;28755;51.478;5.702;2022-08-05T00:00:14;20.10;99.90
43151;DHT22;28755;51.478;5.702;2022-08-05T00:02:40;20.10;99.90
43151;DHT22;28755;51.478;5.702;2022-08-05T00:05:06;20.00;99.90
43151;DHT22;28755;51.478;5.702;2022-08-05T00:07:31;20.00;99.90
43151;DHT22;28755;51.478;5.702;2022-08-05T00:09:57;20.00;99.90
43151;DHT22;28755;51.478;5.702;2022-08-05T00:12:23;20.00;99.90
43151;DHT22;28755;51.478;5.702;2022-08-05T00:14:48;19.90;99.90
43151;DHT22;28755;51.478;5.702;2022-08-05T00:17:14;19.90;99.90
43151;DHT22;28755;51.478;5.702;2022-08-05T00:19:40;19.80;99.90
43151;DHT22;28755;51.478;5.702;2022-08-05T00:22:05;19.80;99.90
43151;DHT22;28755;51.478;5.702;2022-08-05T00:24:31;19.80;99.90
43151;DHT22;28755;51.478;5.702;2022-08-05T00:26:57;19.80;99.90
43151;DHT22;28755;51.478;5.702;2022-08-05T00:29:23;19.80;99.90
43151;DHT22;28755;51.478;5.702;2022-08-05T00:31:49;19.80;99.90
43151;DHT22;28755;51.478;5.702;2022-08-05T00:34:14;19.80;99.90
43151;DHT22;28755;51.478;5.702;2022-08-05T00:36:40;19.80;99.90
43151;DHT22;28755;51.478;5.702;2022-08-05T00:39:06;19.80;99.90
43151;DHT22;28755;51.478;5.702;2022-08-05T00:41:33;19.80;99.90
43151;DHT22;28755;51.478;5.702;2022-08-05T00:43:59;19.80;99.90
43151;DHT22;28755;51.478;5.702;2022-08-05T00:46:26;19.80;99.90
43151;DHT22;28755;51.478;5.702;2022-08-05T00:48:51;19.80;99.90
43151;DHT22;28755;51.478;5.702;2022-08-05T00:51:19;19.80;99.90
43151;DHT22;28755;51.478;5.702;2022-08-05T00:53:44;19.80;99.90
43151;DHT22;28755;51.478;5.702;2022-08-05T00:56:11;19.70;99.90
43151;DHT22;28755;51.478;5.702;2022-08-05T00:58:37;19.80;99.90
43151;DHT22;28755;51.478;5.702;2022-08-05T01:01:03;19.70;99.90
43151;DHT22;28755;51.478;5.702;2022-08-05T01:03:29;19.70;99.90
43151;DHT22;28755;51.478;5.702;2022-08-05T01:05:55;19.70;99.90
43151;DHT22;28755;51.478;5.702;2022-08-05T01:08:21;19.70;99.90
43151;DHT22;28755;51.478;5.702;2022-08-05T01:10:55;19.70;99.90
43151;DHT22;28755;51.478;5.702;2022-08-05T01:16:05;19.60;99.90
43151;DHT22;28755;51.478;5.702;2022-08-05T01:18:42;19.60;99.90
43151;DHT22;28755;51.478;5.702;2022-08-05T01:21:28;19.60;99.90
43151;DHT22;28755;51.478;5.702;2022-08-05T01:26:55;19.60;99.90
43151;DHT22;28755;51.478;5.702;2022-08-05T01:29:33;19.60;99.90
43151;DHT22;28755;51.478;5.702;2022-08-05T01:32:02;19.70;99.90
43151;DHT22;28755;51.478;5.702;2022-08-05T01:34:34;19.60;99.90
43151;DHT22;28755;51.478;5.702;2022-08-05T01:37:13;19.60;99.90
43151;DHT22;28755;51.478;5.702;2022-08-05T01:39:44;19.60;99.90
43151;DHT22;28755;51.478;5.702;2022-08-05T01:42:14;19.60;99.90
43151;DHT22;28755;51.478;5.702;2022-08-05T01:44:42;19.60;99.90
43151;DHT22;28755;51.478;5.702;2022-08-05T01:47:09;19.60;99.90
43151;DHT22;28755;51.478;5.702;2022-08-05T01:49:38;19.50;99.90
43151;DHT22;28755;51.478;5.702;2022-08-05T01:52:05;19.50;99.90
43151;DHT22;28755;51.478;5.702;2022-08-05T01:54:40;19.50;99.90
43151;DHT22;28755;51.478;5.702;2022-08-05T01:57:07;19.50;99.90
43151;DHT22;28755;51.478;5.702;2022-08-05T01:59:34;19.40;99.90
43151;DHT22;28755;51.478;5.702;2022-08-05T02:02:01;19.60;99.90
43151;DHT22;28755;51.478;5.702;2022-08-05T02:04:29;19.70;99.90
43151;DHT22;28755;51.478;5.702;2022-08-05T02:06:57;19.60;99.90
43151;DHT22;28755;51.478;5.702;2022-08-05T02:09:23;19.60;99.90
43151;DHT22;28755;51.478;5.702;2022-08-05T02:12:06;19.60;99.90
43151;DHT22;28755;51.478;5.702;2022-08-05T02:14:39;19.60;99.90
43151;DHT22;28755;51.478;5.702;2022-08-05T02:17:11;19.50;99.90
43151;DHT22;28755;51.478;5.702;2022-08-05T02:19:47;19.60;99.90
43151;DHT22;28755;51.478;5.702;2022-08-05T02:22:28;19.30;99.90
43151;DHT22;28755;51.478;5.702;2022-08-05T02:25:33;19.30;99.90
43151;DHT22;28755;51.478;5.702;2022-08-05T02:28:02;19.30;99.90
43151;DHT22;28755;51.478;5.702;2022-08-05T02:30:37;19.30;99.90
43151;DHT22;28755;51.478;5.702;2022-08-05T02:33:04;19.40;99.90
43151;DHT22;28755;51.478;5.702;2022-08-05T02:35:33;19.40;99.90
43151;DHT22;28755;51.478;5.702;2022-08-05T02:38:01;19.40;99.90
43151;DHT22;28755;51.478;5.702;2022-08-05T02:40:27;19.50;99.90
43151;DHT22;28755;51.478;5.702;2022-08-05T02:42:54;19.40;99.90
43151;DHT22;28755;51.478;5.702;2022-08-05T02:45:21;19.40;99.90
43151;DHT22;28755;51.478;5.702;2022-08-05T02:47:49;19.40;99.90
43151;DHT22;28755;51.478;5.702;2022-08-05T02:50:16;19.40;99.90
43151;DHT22;28755;51.478;5.702;2022-08-05T02:52:43;19.30;99.90
43151;DHT22;28755;51.478;5.702;2022-08-05T02:55:10;19.40;99.90
43151;DHT22;28755;51.478;5.702;2022-08-05T02:57:37;19.30;99.90
43151;DHT22;28755;51.478;5.702;2022-08-05T03:00:04;19.20;99.90
43151;DHT22;28755;51.478;5.702;2022-08-05T03:02:34;19.30;99.90
43151;DHT22;28755;51.478;5.702;2022-08-05T03:05:01;19.20;99.90
43151;DHT22;28755;51.478;5.702;2022-08-05T03:07:27;19.30;99.90
43151;DHT22;28755;51.478;5.702;2022-08-05T03:09:53;19.30;99.90
43151;DHT22;28755;51.478;5.702;2022-08-05T03:12:37;19.30;99.90
43151;DHT22;28755;51.478;5.702;2022-08-05T03:15:05;19.30;99.90
43151;DHT22;28755;51.478;5.702;2022-08-05T03:17:31;19.20;99.90
43151;DHT22;28755;51.478;5.702;2022-08-05T03:19:57;19.20;99.90
43151;DHT22;28755;51.478;5.702;2022-08-05T03:22:23;19.20;99.90
43151;DHT22;28755;51.478;5.702;2022-08-05T03:24:50;19.30;99.90
43151;DHT22;28755;51.478;5.702;2022-08-05T03:27:17;19.10;99.90
43151;DHT22;28755;51.478;5.702;2022-08-05T03:29:43;19.10;99.90
43151;DHT22;28755;51.478;5.702;2022-08-05T03:32:09;19.10;99.90
43151;DHT22;28755;51.478;5.702;2022-08-05T03:34:36;19.10;99.90
43151;DHT22;28755;51.478;5.702;2022-08-05T03:37:03;19.10;99.90
43151;DHT22;28755;51.478;5.702;2022-08-05T03:39:29;19.10;99.90
43151;DHT22;28755;51.478;5.702;2022-08-05T03:41:56;19.00;99.90
43151;DHT22;28755;51.478;5.702;2022-08-05T03:44:22;19.00;99.90
43151;DHT22;28755;51.478;5.702;2022-08-05T03:46:47;18.90;99.90
43151;DHT22;28755;51.478;5.702;2022-08-05T03:49:13;18.90;99.90
43151;DHT22;28755;51.478;5.702;2022-08-05T03:51:42;18.90;99.90
43151;DHT22;28755;51.478;5.702;2022-08-05T03:56:59;18.80;99.90
43151;DHT22;28755;51.478;5.702;2022-08-05T03:59:31;18.90;99.90
43151;DHT22;28755;51.478;5.702;2022-08-05T04:01:58;18.80;99.90
43151;DHT22;28755;51.478;5.702;2022-08-05T04:04:26;18.80;99.90
43151;DHT22;28755;51.478;5.702;2022-08-05T04:06:52;18.80;99.90
43151;DHT22;28755;51.478;5.702;2022-08-05T04:09:18;18.70;99.90
43151;DHT22;28755;51.478;5.702;2022-08-05T04:11:44;18.70;99.90
43151;DHT22;28755;51.478;5.702;2022-08-05T04:14:10;18.70;99.90
43151;DHT22;28755;51.478;5.702;2022-08-05T04:16:36;18.70;99.90
43151;DHT22;28755;51.478;5.702;2022-08-05T04:19:03;18.70;99.90
43151;DHT22;28755;51.478;5.702;2022-08-05T04:21:29;18.60;99.90
43151;DHT22;28755;51.478;5.702;2022-08-05T04:23:55;18.50;99.90
43151;DHT22;28755;51.478;5.702;2022-08-05T04:26:23;18.50;99.90
43151;DHT22;28755;51.478;5.702;2022-08-05T04:28:49;18.50;99.90
43151;DHT22;28755;51.478;5.702;2022-08-05T04:31:14;18.40;99.90
43151;DHT22;28755;51.478;5.702;2022-08-05T04:33:40;18.30;99.90
43151;DHT22;28755;51.478;5.702;2022-08-05T04:36:06;18.30;99.90
43151;DHT22;28755;51.478;5.702;2022-08-05T04:38:35;18.40;99.90
43151;DHT22;28755;51.478;5.702;2022-08-05T04:41:01;18.40;99.90
43151;DHT22;28755;51.478;5.702;2022-08-05T04:43:26;18.40;99.90
43151;DHT22;28755;51.478;5.702;2022-08-05T04:45:52;18.40;99.90
43151;DHT22;28755;51.478;5.702;2022-08-05T04:48:18;18.40;99.90
43151;DHT22;28755;51.478;5.702;2022-08-05T04:50:46;18.40;99.90
43151;DHT22;28755;51.478;5.702;2022-08-05T04:53:17;18.40;99.90
43151;DHT22;28755;51.478;5.702;2022-08-05T04:55:43;18.40;99.90
43151;DHT22;28755;51.478;5.702;2022-08-05T04:58:11;18.40;99.90
43151;DHT22;28755;51.478;5.702;2022-08-05T05:00:38;18.40;99.90
43151;DHT22;28755;51.478;5.702;2022-08-05T05:03:05;18.40;99.90
43151;DHT22;28755;51.478;5.702;2022-08-05T05:05:32;18.40;99.90
43151;DHT22;28755;51.478;5.702;2022-08-05T05:08:03;18.40;99.90
43151;DHT22;28755;51.478;5.702;2022-08-05T05:10:31;18.30;99.90
43151;DHT22;28755;51.478;5.702;2022-08-05T05:12:56;18.30;99.90
43151;DHT22;28755;51.478;5.702;2022-08-05T05:15:22;18.20;99.90
43151;DHT22;28755;51.478;5.702;2022-08-05T05:17:48;18.10;99.90
43151;DHT22;28755;51.478;5.702;2022-08-05T05:20:14;18.00;99.90
43151;DHT22;28755;51.478;5.702;2022-08-05T05:22:40;18.00;99.90
43151;DHT22;28755;51.478;5.702;2022-08-05T05:25:07;18.00;99.90
43151;DHT22;28755;51.478;5.702;2022-08-05T05:27:34;18.10;99.90
43151;DHT22;28755;51.478;5.702;2022-08-05T05:30:00;18.10;99.90
43151;DHT22;28755;51.478;5.702;2022-08-05T05:32:25;18.10;99.90
43151;DHT22;28755;51.478;5.702;2022-08-05T05:34:51;18.10;99.90
43151;DHT22;28755;51.478;5.702;2022-08-05T05:37:17;18.00;99.90
43151;DHT22;28755;51.478;5.702;2022-08-05T05:39:43;17.90;99.90
43151;DHT22;28755;51.478;5.702;2022-08-05T05:42:08;18.00;99.90
43151;DHT22;28755;51.478;5.702;2022-08-05T05:44:34;17.90;99.90
43151;DHT22;28755;51.478;5.702;2022-08-05T05:47:00;18.00;99.90
43151;DHT22;28755;51.478;5.702;2022-08-05T05:49:26;18.00;99.90
43151;DHT22;28755;51.478;5.702;2022-08-05T05:51:52;18.00;99.90
43151;DHT22;28755;51.478;5.702;2022-08-05T05:54:18;18.00;99.90
43151;DHT22;28755;51.478;5.702;2022-08-05T05:56:44;17.90;99.90
43151;DHT22;28755;51.478;5.702;2022-08-05T05:59:09;17.90;99.90
43151;DHT22;28755;51.478;5.702;2022-08-05T06:01:40;17.90;99.90
43151;DHT22;28755;51.478;5.702;2022-08-05T06:04:11;18.00;99.90
43151;DHT22;28755;51.478;5.702;2022-08-05T06:06:37;18.00;99.90
43151;DHT22;28755;51.478;5.702;2022-08-05T06:09:04;18.10;99.90
43151;DHT22;28755;51.478;5.702;2022-08-05T06:11:31;18.10;99.90
43151;DHT22;28755;51.478;5.702;2022-08-05T06:13:57;18.00;99.90
43151;DHT22;28755;51.478;5.702;2022-08-05T06:16:23;18.10;99.90
43151;DHT22;28755;51.478;5.702;2022-08-05T06:18:49;18.10;99.90
43151;DHT22;28755;51.478;5.702;2022-08-05T06:21:14;18.00;99.90
43151;DHT22;28755;51.478;5.702;2022-08-05T06:23:40;18.10;99.90
43151;DHT22;28755;51.478;5.702;2022-08-05T06:26:05;18.00;99.90
43151;DHT22;28755;51.478;5.702;2022-08-05T06:28:31;18.00;99.90
43151;DHT22;28755;51.478;5.702;2022-08-05T06:30:57;18.10;99.90
43151;DHT22;28755;51.478;5.702;2022-08-05T06:33:22;18.10;99.90
43151;DHT22;28755;51.478;5.702;2022-08-05T06:35:48;18.10;99.90
43151;DHT22;28755;51.478;5.702;2022-08-05T06:38:14;18.20;99.90
43151;DHT22;28755;51.478;5.702;2022-08-05T06:40:41;18.30;99.90
43151;DHT22;28755;51.478;5.702;2022-08-05T06:43:07;18.40;99.90
43151;DHT22;28755;51.478;5.702;2022-08-05T06:45:32;18.40;99.90
43151;DHT22;28755;51.478;5.702;2022-08-05T06:47:58;18.50;99.90
43151;DHT22;28755;51.478;5.702;2022-08-05T06:50:23;18.50;99.90
43151;DHT22;28755;51.478;5.702;2022-08-05T06:52:50;18.60;99.90
43151;DHT22;28755;51.478;5.702;2022-08-05T06:55:16;18.70;99.90
43151;DHT22;28755;51.478;5.702;2022-08-05T06:57:42;18.70;99.90
43151;DHT22;28755;51.478;5.702;2022-08-05T07:00:08;18.70;99.90
43151;DHT22;28755;51.478;5.702;2022-08-05T07:02:41;18.90;99.90
43151;DHT22;28755;51.478;5.702;2022-08-05T07:05:07;19.00;99.90
43151;DHT22;28755;51.478;5.702;2022-08-05T07:07:33;19.00;99.90
43151;DHT22;28755;51.478;5.702;2022-08-05T07:09:59;19.00;99.90
43151;DHT22;28755;51.478;5.702;2022-08-05T07:12:24;19.10;99.90
43151;DHT22;28755;51.478;5.702;2022-08-05T07:15:08;19.20;99.90
43151;DHT22;28755;51.478;5.702;2022-08-05T07:17:52;19.40;99.90
43151;DHT22;28755;51.478;5.702;2022-08-05T07:20:18;19.60;99.90
43151;DHT22;28755;51.478;5.702;2022-08-05T07:22:44;19.70;99.90
43151;DHT22;28755;51.478;5.702;2022-08-05T07:25:09;20.10;99.90
43151;DHT22;28755;51.478;5.702;2022-08-05T07:27:35;20.30;99.90
43151;DHT22;28755;51.478;5.702;2022-08-05T07:30:00;20.40;99.90
43151;DHT22;28755;51.478;5.702;2022-08-05T07:32:26;20.50;99.90
43151;DHT22;28755;51.478;5.702;2022-08-05T07:34:51;20.60;99.90
43151;DHT22;28755;51.478;5.702;2022-08-05T07:37:18;20.90;99.90
43151;DHT22;28755;51.478;5.702;2022-08-05T07:39:43;21.00;99.90
43151;DHT22;28755;51.478;5.702;2022-08-05T07:42:09;20.80;99.90
43151;DHT22;28755;51.478;5.702;2022-08-05T07:44:34;20.80;99.90
43151;DHT22;28755;51.478;5.702;2022-08-05T07:47:00;21.00;99.90
43151;DHT22;28755;51.478;5.702;2022-08-05T07:49:26;21.20;99.90
43151;DHT22;28755;51.478;5.702;2022-08-05T07:51:51;21.30;99.90
43151;DHT22;28755;51.478;5.702;2022-08-05T07:54:17;21.40;99.90
43151;DHT22;28755;51.478;5.702;2022-08-05T07:56:42;21.60;99.90
43151;DHT22;28755;51.478;5.702;2022-08-05T07:59:08;21.80;99.90
43151;DHT22;28755;51.478;5.702;2022-08-05T08:01:34;21.70;99.90
43151;DHT22;28755;51.478;5.702;2022-08-05T08:04:00;21.60;99.90
43151;DHT22;28755;51.478;5.702;2022-08-05T08:06:26;21.50;99.90
43151;DHT22;28755;51.478;5.702;2022-08-05T08:08:51;21.50;99.90
43151;DHT22;28755;51.478;5.702;2022-08-05T08:11:17;21.50;99.90
43151;DHT22;28755;51.478;5.702;2022-08-05T08:13:43;21.50;99.90
43151;DHT22;28755;51.478;5.702;2022-08-05T08:16:08;21.40;99.90
43151;DHT22;28755;51.478;5.702;2022-08-05T08:18:34;21.30;99.90
43151;DHT22;28755;51.478;5.702;2022-08-05T08:20:59;21.40;99.90
43151;DHT22;28755;51.478;5.702;2022-08-05T08:23:25;21.60;99.90
43151;DHT22;28755;51.478;5.702;2022-08-05T08:25:50;21.70;99.90
43151;DHT22;28755;51.478;5.702;2022-08-05T08:28:16;22.10;99.90
43151;DHT22;28755;51.478;5.702;2022-08-05T08:30:41;22.20;99.90
43151;DHT22;28755;51.478;5.702;2022-08-05T08:33:09;22.90;99.90
43151;DHT22;28755;51.478;5.702;2022-08-05T08:35:36;23.60;99.90
43151;DHT22;28755;51.478;5.702;2022-08-05T08:38:02;24.10;99.90
43151;DHT22;28755;51.478;5.702;2022-08-05T08:40:28;24.40;99.90
43151;DHT22;28755;51.478;5.702;2022-08-05T08:42:56;24.20;99.90
43151;DHT22;28755;51.478;5.702;2022-08-05T08:45:23;24.10;99.90
43151;DHT22;28755;51.478;5.702;2022-08-05T08:47:49;24.20;99.90
43151;DHT22;28755;51.478;5.702;2022-08-05T08:50:19;24.90;99.90
43151;DHT22;28755;51.478;5.702;2022-08-05T08:53:00;25.50;99.90
43151;DHT22;28755;51.478;5.702;2022-08-05T08:55:27;25.10;99.90
43151;DHT22;28755;51.478;5.702;2022-08-05T08:57:53;24.80;99.90
43151;DHT22;28755;51.478;5.702;2022-08-05T09:00:18;24.70;99.90
43151;DHT22;28755;51.478;5.702;2022-08-05T09:02:45;24.70;99.90
43151;DHT22;28755;51.478;5.702;2022-08-05T09:05:11;24.40;99.90
43151;DHT22;28755;51.478;5.702;2022-08-05T09:07:37;24.00;99.90
43151;DHT22;28755;51.478;5.702;2022-08-05T09:10:03;23.90;99.90
43151;DHT22;28755;51.478;5.702;2022-08-05T09:12:29;23.70;99.90
43151;DHT22;28755;51.478;5.702;2022-08-05T09:14:55;23.40;99.90
43151;DHT22;28755;51.478;5.702;2022-08-05T09:17:21;23.00;99.90
43151;DHT22;28755;51.478;5.702;2022-08-05T09:19:46;22.80;99.90
43151;DHT22;28755;51.478;5.702;2022-08-05T09:22:12;22.80;99.90
43151;DHT22;28755;51.478;5.702;2022-08-05T09:24:38;22.80;99.90
43151;DHT22;28755;51.478;5.702;2022-08-05T09:27:07;23.10;99.90
43151;DHT22;28755;51.478;5.702;2022-08-05T09:29:38;23.10;99.90
43151;DHT22;28755;51.478;5.702;2022-08-05T09:32:07;23.70;99.90
43151;DHT22;28755;51.478;5.702;2022-08-05T09:34:49;24.60;99.90
43151;DHT22;28755;51.478;5.702;2022-08-05T09:37:20;25.20;99.90
43151;DHT22;28755;51.478;5.702;2022-08-05T09:39:46;25.30;99.90
43151;DHT22;28755;51.478;5.702;2022-08-05T09:42:13;25.70;99.90
43151;DHT22;28755;51.478;5.702;2022-08-05T09:44:42;26.10;99.90
43151;DHT22;28755;51.478;5.702;2022-08-05T09:47:14;27.00;99.90
43151;DHT22;28755;51.478;5.702;2022-08-05T09:49:43;27.30;99.90
43151;DHT22;28755;51.478;5.702;2022-08-05T09:52:25;27.30;99.90
43151;DHT22;28755;51.478;5.702;2022-08-05T09:55:05;27.00;99.90
43151;DHT22;28755;51.478;5.702;2022-08-05T09:57:35;28.00;99.90
43151;DHT22;28755;51.478;5.702;2022-08-05T10:00:20;30.70;99.90
43151;DHT22;28755;51.478;5.702;2022-08-05T10:02:50;30.90;99.90
43151;DHT22;28755;51.478;5.702;2022-08-05T10:05:28;30.40;99.90
43151;DHT22;28755;51.478;5.702;2022-08-05T10:10:23;29.70;99.90
43151;DHT22;28755;51.478;5.702;2022-08-05T10:12:54;28.90;99.90
43151;DHT22;28755;51.478;5.702;2022-08-05T10:15:24;28.20;99.90
43151;DHT22;28755;51.478;5.702;2022-08-05T10:18:15;28.10;99.90
43151;DHT22;28755;51.478;5.702;2022-08-05T10:23:25;26.20;99.90
43151;DHT22;28755;51.478;5.702;2022-08-05T10:25:51;25.30;99.90
43151;DHT22;28755;51.478;5.702;2022-08-05T10:28:18;24.00;99.90
43151;DHT22;28755;51.478;5.702;2022-08-05T10:30:44;23.20;99.90
43151;DHT22;28755;51.478;5.702;2022-08-05T10:33:10;22.80;99.90
43151;DHT22;28755;51.478;5.702;2022-08-05T10:35:36;22.70;99.90
43151;DHT22;28755;51.478;5.702;2022-08-05T10:38:03;22.70;99.90
43151;DHT22;28755;51.478;5.702;2022-08-05T10:40:46;22.60;99.90
43151;DHT22;28755;51.478;5.702;2022-08-05T10:43:48;22.70;99.90
43151;DHT22;28755;51.478;5.702;2022-08-05T10:46:17;26.20;99.90
43151;DHT22;28755;51.478;5.702;2022-08-05T10:48:47;30.00;99.90
43151;DHT22;28755;51.478;5.702;2022-08-05T10:51:18;31.80;99.90
43151;DHT22;28755;51.478;5.702;2022-08-05T10:56:18;29.50;99.90
43151;DHT22;28755;51.478;5.702;2022-08-05T11:01:17;27.40;99.90
43151;DHT22;28755;51.478;5.702;2022-08-05T11:06:27;24.80;99.90
43151;DHT22;28755;51.478;5.702;2022-08-05T11:09:20;24.10;99.90
43151;DHT22;28755;51.478;5.702;2022-08-05T11:11:48;23.60;99.90
43151;DHT22;28755;51.478;5.702;2022-08-05T11:19:51;27.80;99.90
43151;DHT22;28755;51.478;5.702;2022-08-05T11:22:37;30.60;98.90
43151;DHT22;28755;51.478;5.702;2022-08-05T11:25:32;32.10;97.90
43151;DHT22;28755;51.478;5.702;2022-08-05T11:36:16;28.70;99.70
43151;DHT22;28755;51.478;5.702;2022-08-05T11:41:25;29.70;96.70
43151;DHT22;28755;51.478;5.702;2022-08-05T11:44:04;31.00;96.50
43151;DHT22;28755;51.478;5.702;2022-08-05T11:46:34;32.50;95.10
43151;DHT22;28755;51.478;5.702;2022-08-05T11:49:00;31.90;93.40
43151;DHT22;28755;51.478;5.702;2022-08-05T11:51:28;32.50;93.80
43151;DHT22;28755;51.478;5.702;2022-08-05T13:24:34;24.40;97.10
43151;DHT22;28755;51.478;5.702;2022-08-05T13:26:59;24.00;96.90
43151;DHT22;28755;51.478;5.702;2022-08-05T13:29:25;23.90;97.90
43151;DHT22;28755;51.478;5.702;2022-08-05T13:31:51;24.00;97.30
43151;DHT22;28755;51.478;5.702;2022-08-05T13:34:16;24.00;97.90
43151;DHT22;28755;51.478;5.702;2022-08-05T13:36:42;24.20;97.80
43151;DHT22;28755;51.478;5.702;2022-08-05T13:39:08;24.30;96.30
43151;DHT22;28755;51.478;5.702;2022-08-05T13:41:35;24.20;95.90
43151;DHT22;28755;51.478;5.702;2022-08-05T13:44:01;24.10;95.90
43151;DHT22;28755;51.478;5.702;2022-08-05T13:46:27;24.00;94.90
43151;DHT22;28755;51.478;5.702;2022-08-05T13:48:53;24.00;95.80
43151;DHT22;28755;51.478;5.702;2022-08-05T13:51:27;24.00;94.60
43151;DHT22;28755;51.478;5.702;2022-08-05T13:53:54;24.00;94.90
43151;DHT22;28755;51.478;5.702;2022-08-05T13:56:20;24.00;94.40
43151;DHT22;28755;51.478;5.702;2022-08-05T13:58:45;24.00;94.80
43151;DHT22;28755;51.478;5.702;2022-08-05T14:01:11;24.20;94.00
43151;DHT22;28755;51.478;5.702;2022-08-05T14:03:37;24.30;93.90
43151;DHT22;28755;51.478;5.702;2022-08-05T14:06:02;24.30;93.20
43151;DHT22;28755;51.478;5.702;2022-08-05T14:08:28;24.40;93.40
43151;DHT22;28755;51.478;5.702;2022-08-05T14:10:54;24.30;93.30
43151;DHT22;28755;51.478;5.702;2022-08-05T14:13:20;24.50;93.90
43151;DHT22;28755;51.478;5.702;2022-08-05T14:15:46;24.40;93.10
43151;DHT22;28755;51.478;5.702;2022-08-05T14:18:12;24.30;92.80
43151;DHT22;28755;51.478;5.702;2022-08-05T14:20:37;24.20;93.20
43151;DHT22;28755;51.478;5.702;2022-08-05T14:23:03;24.20;92.90
43151;DHT22;28755;51.478;5.702;2022-08-05T14:25:29;24.10;93.20
43151;DHT22;28755;51.478;5.702;2022-08-05T14:27:54;24.00;93.00
43151;DHT22;28755;51.478;5.702;2022-08-05T14:30:20;24.00;93.50
43151;DHT22;28755;51.478;5.702;2022-08-05T14:32:46;24.00;93.30
43151;DHT22;28755;51.478;5.702;2022-08-05T14:35:11;24.20;93.70
43151;DHT22;28755;51.478;5.702;2022-08-05T14:37:37;24.60;93.90
43151;DHT22;28755;51.478;5.702;2022-08-05T14:40:04;24.90;93.00
43151;DHT22;28755;51.478;5.702;2022-08-05T14:42:30;24.70;93.00
43151;DHT22;28755;51.478;5.702;2022-08-05T14:44:56;24.60;93.30
43151;DHT22;28755;51.478;5.702;2022-08-05T14:47:22;24.70;94.00
43151;DHT22;28755;51.478;5.702;2022-08-05T14:49:48;24.90;93.70
43151;DHT22;28755;51.478;5.702;2022-08-05T14:52:14;24.90;93.50
43151;DHT22;28755;51.478;5.702;2022-08-05T14:54:40;24.70;93.60
43151;DHT22;28755;51.478;5.702;2022-08-05T14:57:05;24.70;94.10
43151;DHT22;28755;51.478;5.702;2022-08-05T14:59:31;24.70;94.00
43151;DHT22;28755;51.478;5.702;2022-08-05T15:01:57;24.70;93.90
43151;DHT22;28755;51.478;5.702;2022-08-05T15:04:22;25.00;94.50
43151;DHT22;28755;51.478;5.702;2022-08-05T15:06:49;25.00;94.20
43151;DHT22;28755;51.478;5.702;2022-08-05T15:09:19;24.90;94.50
43151;DHT22;28755;51.478;5.702;2022-08-05T15:11:45;24.40;94.60
43151;DHT22;28755;51.478;5.702;2022-08-05T15:14:11;24.00;94.20
43151;DHT22;28755;51.478;5.702;2022-08-05T15:16:36;24.10;94.90
43151;DHT22;28755;51.478;5.702;2022-08-05T15:19:02;24.40;94.00
43151;DHT22;28755;51.478;5.702;2022-08-05T15:21:28;24.60;93.40
43151;DHT22;28755;51.478;5.702;2022-08-05T15:23:53;24.50;93.80
43151;DHT22;28755;51.478;5.702;2022-08-05T15:26:19;24.50;93.80
43151;DHT22;28755;51.478;5.702;2022-08-05T15:28:45;24.20;93.20
43151;DHT22;28755;51.478;5.702;2022-08-05T15:31:11;23.60;93.80
43151;DHT22;28755;51.478;5.702;2022-08-05T15:33:37;23.30;94.10
43151;DHT22;28755;51.478;5.702;2022-08-05T15:36:04;23.10;94.80
43151;DHT22;28755;51.478;5.702;2022-08-05T15:38:33;23.10;95.50
43151;DHT22;28755;51.478;5.702;2022-08-05T15:40:59;22.90;95.80
43151;DHT22;28755;51.478;5.702;2022-08-05T15:43:25;22.60;96.80
43151;DHT22;28755;51.478;5.702;2022-08-05T15:45:51;22.70;97.70
43151;DHT22;28755;51.478;5.702;2022-08-05T15:48:17;22.80;97.50
43151;DHT22;28755;51.478;5.702;2022-08-05T15:50:45;22.90;98.10
43151;DHT22;28755;51.478;5.702;2022-08-05T15:53:12;22.90;97.80
43151;DHT22;28755;51.478;5.702;2022-08-05T15:55:38;22.90;97.70
43151;DHT22;28755;51.478;5.702;2022-08-05T15:58:03;22.90;97.90
43151;DHT22;28755;51.478;5.702;2022-08-05T16:00:29;23.00;98.20
43151;DHT22;28755;51.478;5.702;2022-08-05T16:02:54;23.10;97.40
43151;DHT22;28755;51.478;5.702;2022-08-05T16:05:20;22.90;96.40
43151;DHT22;28755;51.478;5.702;2022-08-05T16:07:47;22.70;96.70
43151;DHT22;28755;51.478;5.702;2022-08-05T16:10:12;22.70;96.70
43151;DHT22;28755;51.478;5.702;2022-08-05T16:12:38;22.60;96.50
43151;DHT22;28755;51.478;5.702;2022-08-05T16:15:04;22.60;96.90
43151;DHT22;28755;51.478;5.702;2022-08-05T16:17:30;22.60;97.00
43151;DHT22;28755;51.478;5.702;2022-08-05T16:19:55;22.60;97.10
43151;DHT22;28755;51.478;5.702;2022-08-05T16:22:21;22.50;96.00
43151;DHT22;28755;51.478;5.702;2022-08-05T16:24:47;22.60;95.80
43151;DHT22;28755;51.478;5.702;2022-08-05T16:27:12;22.60;96.40
43151;DHT22;28755;51.478;5.702;2022-08-05T16:29:38;22.70;96.70
43151;DHT22;28755;51.478;5.702;2022-08-05T16:32:04;22.90;96.30
43151;DHT22;28755;51.478;5.702;2022-08-05T16:34:31;22.80;96.30
43151;DHT22;28755;51.478;5.702;2022-08-05T16:36:56;22.70;96.40
43151;DHT22;28755;51.478;5.702;2022-08-05T16:39:22;22.80;97.10
43151;DHT22;28755;51.478;5.702;2022-08-05T16:41:48;22.80;97.50
43151;DHT22;28755;51.478;5.702;2022-08-05T16:44:15;22.70;97.10
43151;DHT22;28755;51.478;5.702;2022-08-05T16:46:42;22.60;97.10
43151;DHT22;28755;51.478;5.702;2022-08-05T16:49:08;22.60;97.00
43151;DHT22;28755;51.478;5.702;2022-08-05T16:51:36;22.60;97.60
43151;DHT22;28755;51.478;5.702;2022-08-05T16:54:02;22.50;97.30
43151;DHT22;28755;51.478;5.702;2022-08-05T16:56:30;22.30;97.50
43151;DHT22;28755;51.478;5.702;2022-08-05T16:58:58;22.10;97.90
43151;DHT22;28755;51.478;5.702;2022-08-05T17:01:25;22.10;97.80
43151;DHT22;28755;51.478;5.702;2022-08-05T17:03:51;22.10;98.00
43151;DHT22;28755;51.478;5.702;2022-08-05T17:06:16;22.10;98.30
43151;DHT22;28755;51.478;5.702;2022-08-05T17:08:43;22.20;98.80
43151;DHT22;28755;51.478;5.702;2022-08-05T17:11:10;22.30;98.50
43151;DHT22;28755;51.478;5.702;2022-08-05T17:13:36;22.40;98.60
43151;DHT22;28755;51.478;5.702;2022-08-05T17:16:02;22.40;98.60
43151;DHT22;28755;51.478;5.702;2022-08-05T17:18:28;22.10;98.80
43151;DHT22;28755;51.478;5.702;2022-08-05T17:20:54;21.90;98.60
43151;DHT22;28755;51.478;5.702;2022-08-05T17:23:20;21.80;99.30
43151;DHT22;28755;51.478;5.702;2022-08-05T17:25:45;21.50;99.10
43151;DHT22;28755;51.478;5.702;2022-08-05T17:28:12;21.40;99.40
43151;DHT22;28755;51.478;5.702;2022-08-05T17:30:38;21.40;99.70
43151;DHT22;28755;51.478;5.702;2022-08-05T17:33:04;21.50;99.90
43151;DHT22;28755;51.478;5.702;2022-08-05T17:35:29;21.50;99.90
43151;DHT22;28755;51.478;5.702;2022-08-05T17:37:55;21.30;99.90
43151;DHT22;28755;51.478;5.702;2022-08-05T17:40:21;21.40;99.90